createdAt,value
2017-08-31T00:01:55.299Z,95.80
2017-08-31T00:04:22.860Z,96.00
2017-08-31T00:06:50.384Z,95.60
2017-08-31T00:09:17.947Z,95.90
2017-08-31T00:11:45.510Z,95.90
2017-08-31T00:14:13.070Z,96.10
2017-08-31T00:16:40.637Z,96.00
2017-08-31T00:19:08.174Z,96.10
2017-08-31T00:21:36.494Z,96.00
2017-08-31T00:24:04.030Z,96.00
2017-08-31T00:26:31.602Z,95.60
2017-08-31T00:28:59.122Z,95.80
2017-08-31T00:31:26.654Z,95.80
2017-08-31T00:33:54.214Z,96.20
2017-08-31T00:36:21.746Z,96.50
2017-08-31T00:38:49.317Z,96.10
2017-08-31T00:41:16.841Z,95.80
2017-08-31T00:43:44.402Z,95.80
2017-08-31T00:46:11.935Z,95.90
2017-08-31T00:48:39.493Z,95.70
2017-08-31T00:51:07.021Z,95.60
2017-08-31T00:53:34.582Z,96.00
2017-08-31T00:56:02.110Z,95.80
2017-08-31T00:58:29.671Z,95.80
2017-08-31T01:00:57.194Z,95.80
2017-08-31T01:03:24.754Z,95.80
2017-08-31T01:05:52.316Z,95.80
2017-08-31T01:08:19.837Z,95.90
2017-08-31T01:10:47.415Z,95.90
2017-08-31T01:13:14.934Z,95.50
2017-08-31T01:15:42.467Z,95.40
2017-08-31T01:18:10.051Z,95.30
2017-08-31T01:20:37.603Z,95.50
2017-08-31T01:23:05.169Z,95.40
2017-08-31T01:25:32.706Z,95.80
2017-08-31T01:28:00.277Z,95.70
2017-08-31T01:30:27.802Z,95.10
2017-08-31T01:32:55.373Z,95.50
2017-08-31T01:35:22.909Z,95.70
2017-08-31T01:37:50.489Z,95.80
2017-08-31T01:40:18.046Z,95.70
2017-08-31T01:42:45.642Z,95.90
2017-08-31T01:45:13.235Z,95.60
2017-08-31T01:47:46.771Z,95.60
2017-08-31T01:50:14.326Z,95.70
2017-08-31T01:52:41.863Z,95.70
2017-08-31T01:55:09.420Z,95.50
2017-08-31T01:57:36.970Z,95.60
2017-08-31T02:00:04.494Z,95.40
2017-08-31T02:02:32.041Z,96.00
2017-08-31T02:04:59.558Z,96.00
2017-08-31T02:07:27.107Z,95.40
2017-08-31T02:09:54.630Z,95.80
2017-08-31T02:12:22.178Z,95.40
2017-08-31T02:14:49.707Z,95.30
2017-08-31T02:17:18.027Z,95.40
2017-08-31T02:19:45.610Z,95.30
2017-08-31T02:22:13.147Z,94.90
2017-08-31T02:24:40.703Z,95.40
2017-08-31T02:27:08.226Z,95.20
2017-08-31T02:29:35.779Z,95.50
2017-08-31T02:32:03.306Z,95.60
2017-08-31T02:34:30.870Z,95.50
2017-08-31T02:36:58.399Z,95.40
2017-08-31T02:39:25.923Z,95.70
2017-08-31T02:41:53.478Z,95.70
2017-08-31T02:44:21.007Z,95.30
2017-08-31T02:46:48.576Z,95.40
2017-08-31T02:49:16.106Z,95.60
2017-08-31T02:51:43.649Z,95.60
2017-08-31T02:54:11.181Z,95.50
2017-08-31T02:56:38.738Z,95.50
2017-08-31T02:59:06.294Z,95.70
2017-08-31T03:01:33.846Z,95.80
2017-08-31T03:04:01.408Z,96.00
2017-08-31T03:06:28.978Z,95.40
2017-08-31T03:08:56.498Z,95.40
2017-08-31T03:11:24.050Z,95.10
2017-08-31T03:13:51.577Z,95.00
2017-08-31T03:16:19.150Z,95.70
2017-08-31T03:18:46.725Z,95.40
2017-08-31T03:21:14.270Z,95.70
2017-08-31T03:23:41.793Z,95.80
2017-08-31T03:26:09.350Z,95.70
2017-08-31T03:28:36.880Z,95.50
2017-08-31T03:31:04.432Z,95.50
2017-08-31T03:33:31.971Z,95.50
2017-08-31T03:35:59.530Z,95.50
2017-08-31T03:38:27.046Z,95.30
2017-08-31T03:40:54.567Z,95.40
2017-08-31T03:43:22.118Z,95.60
2017-08-31T03:45:49.650Z,95.80
2017-08-31T03:48:17.198Z,95.60
2017-08-31T03:50:44.721Z,95.50
2017-08-31T03:53:12.281Z,95.90
2017-08-31T03:55:39.804Z,95.60
2017-08-31T03:58:07.355Z,96.00
2017-08-31T04:00:34.902Z,95.70
2017-08-31T04:03:02.454Z,96.00
2017-08-31T04:05:29.981Z,95.60
2017-08-31T04:07:57.529Z,95.80
2017-08-31T04:10:25.045Z,95.80
2017-08-31T04:12:52.600Z,95.80
2017-08-31T04:15:20.150Z,95.80
2017-08-31T04:17:47.676Z,96.10
2017-08-31T04:20:15.218Z,96.00
2017-08-31T04:22:42.737Z,96.00
2017-08-31T04:25:10.289Z,95.80
2017-08-31T04:27:37.824Z,96.00
2017-08-31T04:30:05.384Z,95.70
2017-08-31T04:32:32.906Z,96.10
2017-08-31T04:35:00.454Z,96.00
2017-08-31T04:37:27.986Z,95.90
2017-08-31T04:39:55.551Z,95.90
2017-08-31T04:42:23.076Z,95.90
2017-08-31T04:44:50.634Z,96.00
2017-08-31T04:47:18.177Z,96.00
2017-08-31T04:49:46.046Z,95.90
2017-08-31T04:52:13.566Z,96.00
2017-08-31T04:54:41.130Z,95.90
2017-08-31T04:57:08.657Z,95.80
2017-08-31T04:59:36.199Z,96.10
2017-08-31T05:02:03.771Z,95.50
2017-08-31T05:04:31.348Z,95.70
2017-08-31T05:06:58.868Z,95.50
2017-08-31T05:09:26.419Z,96.30
2017-08-31T05:11:53.989Z,95.60
2017-08-31T05:14:21.514Z,95.90
2017-08-31T05:16:49.074Z,96.00
2017-08-31T05:19:16.593Z,96.00
2017-08-31T05:21:44.120Z,95.70
2017-08-31T05:24:11.671Z,95.50
2017-08-31T05:26:39.221Z,95.70
2017-08-31T05:31:58.169Z,95.60
2017-08-31T05:34:26.139Z,95.60
2017-08-31T05:36:53.692Z,95.60
2017-08-31T05:39:21.266Z,95.40
2017-08-31T05:41:48.790Z,95.70
2017-08-31T05:44:16.322Z,95.80
2017-08-31T05:46:43.881Z,96.00
2017-08-31T05:49:11.406Z,95.50
2017-08-31T05:51:38.972Z,95.60
2017-08-31T05:54:07.271Z,95.60
2017-08-31T05:56:34.846Z,95.60
2017-08-31T05:59:02.410Z,95.70
2017-08-31T06:01:33.408Z,95.50
2017-08-31T06:04:00.972Z,95.30
2017-08-31T06:06:30.275Z,95.60
2017-08-31T06:14:45.456Z,95.70
2017-08-31T06:17:13.013Z,95.90
2017-08-31T06:19:40.534Z,95.30
2017-08-31T06:22:08.098Z,95.20
2017-08-31T06:24:35.625Z,95.10
2017-08-31T06:27:03.143Z,95.20
2017-08-31T06:29:30.827Z,95.10
2017-08-31T06:31:58.354Z,95.50
2017-08-31T06:34:25.880Z,95.60
2017-08-31T06:36:53.435Z,95.60
2017-08-31T06:39:20.970Z,95.90
2017-08-31T06:41:48.537Z,95.80
2017-08-31T06:44:16.073Z,95.80
2017-08-31T06:46:43.593Z,96.10
2017-08-31T06:49:11.144Z,95.90
2017-08-31T06:51:38.672Z,95.90
2017-08-31T06:54:06.217Z,95.80
2017-08-31T06:56:33.753Z,95.80
2017-08-31T06:59:01.393Z,96.10
2017-08-31T07:01:29.102Z,95.70
2017-08-31T07:03:56.659Z,95.90
2017-08-31T07:06:24.182Z,95.70
2017-08-31T07:08:51.738Z,95.90
2017-08-31T07:11:19.266Z,95.60
2017-08-31T07:13:46.819Z,95.50
2017-08-31T07:16:14.364Z,95.90
2017-08-31T07:18:41.899Z,95.70
2017-08-31T07:21:09.456Z,95.50
2017-08-31T07:23:36.977Z,95.20
2017-08-31T07:26:04.502Z,94.90
2017-08-31T07:28:32.861Z,95.00
2017-08-31T07:31:00.378Z,95.00
2017-08-31T07:33:27.908Z,95.10
2017-08-31T07:35:55.461Z,95.10
2017-08-31T07:38:23.026Z,95.00
2017-08-31T07:40:50.590Z,94.90
2017-08-31T07:43:18.870Z,95.00
2017-08-31T07:45:46.443Z,95.00
2017-08-31T07:48:13.970Z,94.60
2017-08-31T07:50:41.494Z,95.00
2017-08-31T07:53:09.047Z,94.70
2017-08-31T07:55:36.566Z,94.70
2017-08-31T07:58:04.121Z,94.60
2017-08-31T08:00:31.642Z,95.00
2017-08-31T08:02:59.209Z,94.80
2017-08-31T08:05:26.758Z,95.10
2017-08-31T08:07:54.309Z,94.90
2017-08-31T08:10:21.874Z,94.90
2017-08-31T08:12:49.416Z,94.60
2017-08-31T08:15:16.981Z,95.00
2017-08-31T08:17:44.526Z,94.70
2017-08-31T08:20:12.103Z,94.90
2017-08-31T08:22:39.634Z,95.00
2017-08-31T08:25:07.153Z,94.90
2017-08-31T08:27:34.722Z,94.60
2017-08-31T08:30:02.256Z,94.90
2017-08-31T08:32:29.781Z,94.60
2017-08-31T08:34:57.338Z,94.80
2017-08-31T08:37:24.863Z,94.60
2017-08-31T08:39:52.443Z,94.80
2017-08-31T08:42:19.979Z,94.40
2017-08-31T08:44:47.530Z,94.20
2017-08-31T08:47:15.049Z,94.20
2017-08-31T08:49:42.640Z,94.10
2017-08-31T08:52:10.173Z,94.10
2017-08-31T08:54:37.697Z,94.00
2017-08-31T08:57:05.265Z,93.60
2017-08-31T08:59:32.787Z,93.60
2017-08-31T09:02:00.301Z,92.90
2017-08-31T09:04:27.862Z,92.70
2017-08-31T09:06:55.418Z,92.70
2017-08-31T09:09:22.973Z,93.20
2017-08-31T09:11:50.550Z,92.70
2017-08-31T09:14:18.097Z,93.60
2017-08-31T09:16:45.674Z,93.50
2017-08-31T09:19:13.194Z,93.20
2017-08-31T09:21:40.771Z,93.00
2017-08-31T09:24:08.343Z,93.50
2017-08-31T09:26:35.888Z,93.70
2017-08-31T09:29:03.443Z,94.20
2017-08-31T09:31:30.978Z,93.90
2017-08-31T09:33:58.536Z,93.20
2017-08-31T09:36:26.095Z,93.70
2017-08-31T09:38:53.658Z,93.70
2017-08-31T09:41:21.181Z,94.20
2017-08-31T09:43:48.791Z,93.30
2017-08-31T09:46:16.323Z,93.70
2017-08-31T09:48:43.850Z,93.60
2017-08-31T09:51:11.654Z,93.30
2017-08-31T09:53:39.178Z,93.70
2017-08-31T09:56:06.732Z,93.30
2017-08-31T09:58:34.270Z,93.90
2017-08-31T10:01:01.839Z,94.20
2017-08-31T10:03:29.407Z,93.70
2017-08-31T10:05:56.937Z,94.00
2017-08-31T10:08:24.493Z,93.70
2017-08-31T10:10:52.066Z,93.70
2017-08-31T10:13:19.596Z,93.00
2017-08-31T10:15:47.116Z,92.60
2017-08-31T10:18:14.670Z,92.80
2017-08-31T10:20:42.210Z,92.30
2017-08-31T10:23:09.774Z,92.50
2017-08-31T10:25:37.337Z,92.10
2017-08-31T10:28:04.898Z,91.90
2017-08-31T10:30:32.430Z,92.80
2017-08-31T10:33:00.002Z,92.50
2017-08-31T10:35:27.522Z,92.20
2017-08-31T10:37:55.038Z,92.40
2017-08-31T10:40:22.590Z,92.40
2017-08-31T10:42:50.110Z,91.20
2017-08-31T10:45:17.709Z,92.20
2017-08-31T10:47:45.269Z,92.00
2017-08-31T10:50:12.793Z,92.60
2017-08-31T10:52:40.354Z,91.30
2017-08-31T10:55:07.878Z,91.40
2017-08-31T10:57:35.455Z,90.70
2017-08-31T11:00:02.977Z,90.70
2017-08-31T11:02:30.545Z,90.50
2017-08-31T11:04:58.081Z,91.50
2017-08-31T11:07:25.630Z,91.30
2017-08-31T11:09:53.196Z,91.50
2017-08-31T11:12:20.777Z,92.30
2017-08-31T11:14:48.326Z,91.60
2017-08-31T11:17:15.870Z,91.50
2017-08-31T11:19:43.399Z,90.60
2017-08-31T11:22:10.953Z,90.50
2017-08-31T11:24:38.482Z,90.60
2017-08-31T11:27:06.058Z,89.10
2017-08-31T11:29:33.664Z,87.80
2017-08-31T11:32:01.220Z,90.70
2017-08-31T11:34:29.574Z,90.80
2017-08-31T11:36:57.171Z,90.80
2017-08-31T11:39:24.614Z,91.80
2017-08-31T11:41:52.978Z,91.10
2017-08-31T11:44:20.510Z,91.10
2017-08-31T11:46:48.083Z,91.80
2017-08-31T11:49:15.610Z,91.50
2017-08-31T11:51:43.165Z,91.70
2017-08-31T11:54:10.729Z,92.00
2017-08-31T11:56:38.279Z,92.30
2017-08-31T11:59:05.806Z,92.20
2017-08-31T12:01:33.361Z,92.00
2017-08-31T12:04:00.889Z,92.00
2017-08-31T12:06:28.450Z,91.90
2017-08-31T12:08:55.970Z,92.00
2017-08-31T12:11:23.495Z,91.80
2017-08-31T12:13:51.050Z,91.50
2017-08-31T12:16:18.578Z,91.00
2017-08-31T12:18:46.143Z,90.70
2017-08-31T12:21:13.667Z,90.90
2017-08-31T12:23:41.186Z,90.30
2017-08-31T12:26:08.764Z,89.70
2017-08-31T12:28:36.413Z,89.60
2017-08-31T12:31:03.930Z,88.10
2017-08-31T12:33:31.494Z,88.20
2017-08-31T12:35:59.015Z,85.80
2017-08-31T12:38:26.590Z,84.10
2017-08-31T12:40:54.111Z,85.60
2017-08-31T12:43:21.669Z,82.20
2017-08-31T12:45:49.199Z,81.90
2017-08-31T12:48:17.795Z,80.50
2017-08-31T12:50:45.558Z,82.80
2017-08-31T12:53:13.086Z,78.80
2017-08-31T12:55:40.618Z,79.50
2017-08-31T12:58:08.184Z,78.90
2017-08-31T13:00:35.732Z,76.90
2017-08-31T13:03:03.336Z,78.90
2017-08-31T13:05:30.878Z,76.70
2017-08-31T13:07:58.473Z,76.80
2017-08-31T13:10:25.993Z,78.20
2017-08-31T13:12:53.514Z,78.20
2017-08-31T13:15:21.191Z,77.20
2017-08-31T13:17:48.744Z,75.90
2017-08-31T13:20:16.297Z,76.80
2017-08-31T13:22:43.813Z,75.20
2017-08-31T13:25:11.358Z,75.30
2017-08-31T13:27:38.875Z,72.80
2017-08-31T13:30:06.446Z,75.20
2017-08-31T13:32:34.046Z,73.90
2017-08-31T13:35:01.566Z,71.60
2017-08-31T13:37:29.134Z,72.50
2017-08-31T13:39:56.653Z,73.20
2017-08-31T13:42:24.217Z,73.00
2017-08-31T13:44:51.754Z,74.80
2017-08-31T13:47:19.286Z,74.60
2017-08-31T13:49:46.842Z,74.90
2017-08-31T13:52:14.360Z,74.60
2017-08-31T13:54:41.935Z,74.50
2017-08-31T13:57:09.453Z,74.80
2017-08-31T13:59:37.174Z,73.50
2017-08-31T14:02:04.707Z,73.40
2017-08-31T14:04:32.240Z,75.10
2017-08-31T14:06:59.873Z,72.40
2017-08-31T14:09:27.389Z,73.50
2017-08-31T14:11:54.952Z,72.90
2017-08-31T14:14:22.509Z,72.70
2017-08-31T14:16:50.050Z,72.60
2017-08-31T14:19:17.619Z,72.40
2017-08-31T14:21:45.159Z,74.60
2017-08-31T14:24:12.719Z,74.10
2017-08-31T14:26:40.278Z,76.00
2017-08-31T14:29:07.801Z,72.70
2017-08-31T14:31:35.370Z,70.00
2017-08-31T14:34:02.898Z,69.90
2017-08-31T14:36:30.442Z,70.80
2017-08-31T14:38:57.998Z,69.50
2017-08-31T14:41:25.529Z,68.10
2017-08-31T14:43:53.101Z,70.30
2017-08-31T14:46:20.629Z,73.80
2017-08-31T14:48:48.167Z,71.10
2017-08-31T14:51:15.745Z,70.50
2017-08-31T14:53:43.285Z,71.10
2017-08-31T14:56:10.850Z,69.50
2017-08-31T14:58:38.370Z,67.80
2017-08-31T15:01:05.903Z,69.60
2017-08-31T15:03:33.466Z,66.70
2017-08-31T15:06:00.983Z,66.60
2017-08-31T15:08:28.536Z,67.60
2017-08-31T15:10:56.055Z,68.70
2017-08-31T15:13:23.628Z,68.30
2017-08-31T15:15:51.159Z,66.70
2017-08-31T15:18:18.686Z,67.50
2017-08-31T15:20:46.238Z,66.60
2017-08-31T15:23:13.763Z,68.30
2017-08-31T15:25:41.317Z,67.20
2017-08-31T15:28:08.838Z,67.30
2017-08-31T15:30:36.394Z,65.80
2017-08-31T15:33:03.958Z,67.20
2017-08-31T15:35:31.479Z,68.40
2017-08-31T15:37:59.010Z,67.30
2017-08-31T15:40:26.574Z,73.10
2017-08-31T15:42:54.105Z,70.80
2017-08-31T15:45:21.666Z,68.90
2017-08-31T15:47:49.182Z,68.70
2017-08-31T15:50:16.706Z,70.20
2017-08-31T15:52:44.267Z,67.90
2017-08-31T15:55:11.795Z,70.10
2017-08-31T15:57:39.318Z,68.60
2017-08-31T16:00:06.878Z,70.40
2017-08-31T16:02:34.463Z,73.90
2017-08-31T16:05:01.994Z,77.10
2017-08-31T16:07:29.518Z,72.70
2017-08-31T16:09:57.082Z,72.20
2017-08-31T16:12:24.610Z,71.90
2017-08-31T16:14:52.787Z,70.60
2017-08-31T16:17:20.342Z,71.70
2017-08-31T16:19:47.898Z,73.30
2017-08-31T16:22:15.467Z,76.50
2017-08-31T16:24:43.003Z,73.90
2017-08-31T16:27:10.574Z,75.90
2017-08-31T16:29:38.103Z,72.10
2017-08-31T16:32:05.635Z,75.50
2017-08-31T16:34:33.191Z,77.70
2017-08-31T16:37:00.718Z,79.60
2017-08-31T16:39:28.350Z,80.60
2017-08-31T16:41:55.893Z,82.30
2017-08-31T16:44:23.455Z,81.70
2017-08-31T16:46:50.994Z,83.10
2017-08-31T16:49:18.561Z,85.20
2017-08-31T16:51:46.085Z,86.40
2017-08-31T16:54:13.643Z,86.40
2017-08-31T16:56:41.194Z,87.60
2017-08-31T16:59:08.730Z,86.50
2017-08-31T17:01:36.286Z,88.00
2017-08-31T17:04:03.815Z,87.50
2017-08-31T17:06:31.374Z,85.10
2017-08-31T17:08:58.910Z,84.30
2017-08-31T17:11:26.469Z,86.80
2017-08-31T17:13:53.994Z,88.20
2017-08-31T17:16:21.565Z,86.70
2017-08-31T17:18:49.101Z,85.20
2017-08-31T17:21:16.661Z,86.40
2017-08-31T17:23:44.182Z,88.00
2017-08-31T17:26:11.741Z,86.10
2017-08-31T17:28:39.304Z,86.60
2017-08-31T17:31:06.826Z,86.40
2017-08-31T17:33:34.403Z,83.50
2017-08-31T17:36:01.978Z,83.90
2017-08-31T17:38:29.501Z,84.10
2017-08-31T17:40:57.034Z,87.80
2017-08-31T17:43:24.603Z,88.10
2017-08-31T17:45:52.126Z,89.40
2017-08-31T17:48:19.666Z,89.70
2017-08-31T17:50:47.262Z,89.60
2017-08-31T17:53:14.852Z,88.50
2017-08-31T17:55:42.438Z,89.90
2017-08-31T17:58:10.020Z,89.00
2017-08-31T18:00:37.561Z,88.80
2017-08-31T18:03:05.096Z,89.80
2017-08-31T18:05:32.663Z,90.30
2017-08-31T18:08:00.196Z,90.80
2017-08-31T18:10:27.775Z,91.10
2017-08-31T18:12:55.310Z,91.30
2017-08-31T18:15:22.889Z,91.80
2017-08-31T18:17:50.430Z,92.20
2017-08-31T18:20:17.977Z,92.30
2017-08-31T18:22:45.542Z,92.50
2017-08-31T18:25:13.118Z,91.10
2017-08-31T18:27:40.713Z,90.40
2017-08-31T18:30:08.282Z,89.60
2017-08-31T18:32:35.805Z,88.00
2017-08-31T18:35:03.355Z,90.80
2017-08-31T18:37:30.923Z,92.00
2017-08-31T18:39:59.322Z,92.50
2017-08-31T18:42:26.891Z,92.90
2017-08-31T18:44:54.418Z,92.60
2017-08-31T18:47:21.978Z,92.90
2017-08-31T18:49:49.621Z,93.10
2017-08-31T18:52:17.193Z,93.20
2017-08-31T18:54:44.841Z,93.50
2017-08-31T18:57:12.375Z,93.70
2017-08-31T18:59:39.934Z,93.60
2017-08-31T19:02:07.501Z,93.40
2017-08-31T19:04:35.027Z,93.00
2017-08-31T19:07:02.553Z,93.10
2017-08-31T19:09:30.119Z,92.20
2017-08-31T19:11:57.646Z,91.20
2017-08-31T19:14:25.264Z,92.00
2017-08-31T19:16:52.818Z,92.40
2017-08-31T19:19:20.350Z,92.30
2017-08-31T19:21:47.930Z,93.00
2017-08-31T19:24:15.467Z,93.30
2017-08-31T19:26:43.070Z,93.50
2017-08-31T19:29:10.619Z,93.50
2017-08-31T19:31:38.157Z,93.70
2017-08-31T19:34:05.731Z,93.50
2017-08-31T19:36:33.273Z,93.40
2017-08-31T19:39:00.832Z,93.20
2017-08-31T19:41:28.430Z,93.30
2017-08-31T19:43:55.982Z,93.30
2017-08-31T19:46:23.515Z,93.40
2017-08-31T19:48:51.094Z,93.70
2017-08-31T19:51:18.630Z,93.30
2017-08-31T19:53:46.165Z,93.40
2017-08-31T19:56:13.734Z,93.70
2017-08-31T19:58:41.266Z,93.90
2017-08-31T20:01:08.794Z,94.00
2017-08-31T20:03:37.139Z,93.90
2017-08-31T20:06:04.680Z,93.90
2017-08-31T20:08:32.257Z,94.00
2017-08-31T20:10:59.786Z,94.30
2017-08-31T20:13:27.311Z,94.20
2017-08-31T20:15:54.880Z,94.40
2017-08-31T20:18:22.407Z,94.30
2017-08-31T20:20:49.963Z,94.10
2017-08-31T20:23:17.485Z,94.00
2017-08-31T20:25:45.067Z,93.90
2017-08-31T20:28:12.590Z,94.10
2017-08-31T20:30:40.125Z,93.80
2017-08-31T20:33:07.679Z,93.90
2017-08-31T20:35:35.230Z,92.90
2017-08-31T20:38:02.782Z,93.20
2017-08-31T20:40:30.314Z,93.40
2017-08-31T20:42:57.881Z,93.40
2017-08-31T20:45:25.442Z,93.20
2017-08-31T20:47:52.969Z,93.30
2017-08-31T20:50:20.529Z,93.20
2017-08-31T20:52:48.136Z,93.40
2017-08-31T20:55:15.674Z,93.30
2017-08-31T20:57:43.247Z,93.30
2017-08-31T21:00:10.773Z,93.20
2017-08-31T21:02:38.334Z,93.20
2017-08-31T21:05:05.863Z,93.30
2017-08-31T21:07:33.390Z,93.10
2017-08-31T21:10:00.963Z,93.10
2017-08-31T21:12:28.489Z,93.40
2017-08-31T21:14:56.014Z,93.60
2017-08-31T21:17:23.573Z,93.80
2017-08-31T21:19:51.106Z,93.80
2017-08-31T21:22:18.678Z,93.60
2017-08-31T21:24:46.203Z,93.40
2017-08-31T21:27:13.731Z,93.40
2017-08-31T21:29:41.307Z,93.40
2017-08-31T21:32:08.834Z,93.40
2017-08-31T21:34:36.353Z,93.40
2017-08-31T21:37:03.913Z,93.50
2017-08-31T21:39:31.450Z,93.60
2017-08-31T21:41:59.025Z,94.00
2017-08-31T21:44:26.570Z,94.10
2017-08-31T21:46:54.101Z,94.50
2017-08-31T21:49:21.662Z,93.90
2017-08-31T21:51:49.194Z,94.20
2017-08-31T21:54:16.750Z,94.30
2017-08-31T21:56:44.285Z,94.30
2017-08-31T21:59:11.844Z,94.10
2017-08-31T22:01:39.404Z,94.00
2017-08-31T22:04:06.985Z,94.10
2017-08-31T22:06:34.514Z,94.10
2017-08-31T22:09:02.050Z,94.40
2017-08-31T22:11:29.606Z,94.20
2017-08-31T22:13:57.161Z,94.10
2017-08-31T22:16:24.706Z,94.30
2017-08-31T22:18:52.262Z,94.20
2017-08-31T22:21:19.834Z,93.80
2017-08-31T22:23:47.363Z,93.70
2017-08-31T22:26:14.885Z,93.90
2017-08-31T22:28:42.449Z,94.00
2017-08-31T22:31:09.982Z,93.90
2017-08-31T22:33:37.510Z,93.80
2017-08-31T22:36:05.092Z,93.90
2017-08-31T22:38:32.626Z,93.70
2017-08-31T22:41:00.190Z,93.80
2017-08-31T22:43:27.718Z,93.90
2017-08-31T22:45:55.250Z,93.80
2017-08-31T22:48:22.814Z,93.30
2017-08-31T22:50:50.374Z,93.30
2017-08-31T22:53:17.892Z,93.30
2017-08-31T22:55:45.461Z,93.40
2017-08-31T22:58:15.781Z,93.40
2017-08-31T23:00:43.337Z,93.40
2017-08-31T23:03:10.859Z,93.50
2017-08-31T23:05:38.383Z,93.40
2017-08-31T23:08:05.929Z,93.40
2017-08-31T23:10:33.491Z,93.10
2017-08-31T23:13:01.014Z,93.00
2017-08-31T23:15:28.542Z,93.20
2017-08-31T23:17:56.100Z,93.20
2017-08-31T23:20:23.646Z,93.10
2017-08-31T23:22:51.197Z,93.30
2017-08-31T23:25:18.730Z,93.40
2017-08-31T23:27:46.289Z,93.50
2017-08-31T23:30:13.811Z,93.50
2017-08-31T23:32:41.362Z,93.50
2017-08-31T23:35:08.894Z,93.30
2017-08-31T23:37:36.455Z,93.30
2017-08-31T23:40:03.982Z,93.40
2017-08-31T23:42:31.553Z,93.50
2017-08-31T23:44:59.074Z,93.60
2017-08-31T23:47:26.630Z,93.40
2017-08-31T23:49:54.153Z,93.40
2017-08-31T23:52:21.674Z,93.50
2017-08-31T23:54:49.230Z,93.60
2017-08-31T23:57:16.756Z,93.60
2017-08-31T23:59:44.314Z,93.60
